Check out our new PWSWeather beta!
PWSweather.com
Personal Weather Stations
Station Observations
BERGSLAGEN
Bergslagen, NoraSE

BergslagenNoraSE

Lat: 59.532278, Lon: 15.016132

Elevation: 492

Station Type: Davis Vantage Pro2 Plus Wireless

http://www.weather.tallasen.se

Latest ConditionsUpdated 12:30:03 PM GMT+01:01 Thursday, Feb 27, 2020
Currently Today's Max Today's Min Today's Average
Temperature 32.0°F0.0°C 32.0°F0.0°C 23.2°F-4.9°C 25.4°F-3.7°C
Dew Point 19.7°F-6.8°C 20.4°F-6.4°C 17.8°F-7.9°C 18.8°F-7.3°C
Winds 4.0 mph NW6.4 kmh NW 4.0 mph -6.4 kmh - - 1.3 mph 2.1 kmh
Wind Gusts 11.0 mph17.7 kmh 11.0 mph17.7 kmh - -
Humidity 60% 81% 60% 76%
Pressure 29.43 in996.6 mb 29.44 in997.0 mb 29.42 in996.3 mb -
Hour Temp Dew Point Humidity Winds Wind Gusts Pressure Precip Precip Rate Daily Precip Total
12:30 PM 32.0°F0.0°C 19.7°F-6.8°C 60% 4.0 mph NW6.4 kmh NW 11.0 mph17.7 kmh 29.43 in996.6 mb 0.00 in0.0 mm 0.00 in0.0 mm 0.00 in0.0 mm
12:15 PM 30.9°F-0.6°C 19.4°F-7.0°C 62% 2.0 mph NW3.2 kmh NW 8.0 mph12.9 kmh 29.43 in996.6 mb 0.00 in0.0 mm 0.00 in0.0 mm 0.00 in0.0 mm
12:00 PM 30.6°F-0.8°C 19.5°F-6.9°C 63% 2.0 mph NW3.2 kmh NW 9.0 mph14.5 kmh 29.43 in996.6 mb 0.00 in0.0 mm 0.00 in0.0 mm 0.00 in0.0 mm
11:45 AM 30.2°F-1.0°C 19.5°F-6.9°C 64% 2.0 mph WNW3.2 kmh WNW 7.0 mph11.3 kmh 29.43 in996.6 mb 0.00 in0.0 mm 0.00 in0.0 mm 0.00 in0.0 mm
11:30 AM 30.2°F-1.0°C 20.2°F-6.6°C 66% 4.0 mph WNW6.4 kmh WNW 9.0 mph14.5 kmh 29.43 in996.6 mb 0.00 in0.0 mm 0.00 in0.0 mm 0.00 in0.0 mm
11:15 AM 29.1°F-1.6°C 19.9°F-6.7°C 68% 3.0 mph WNW4.8 kmh WNW 9.0 mph14.5 kmh 29.44 in997.0 mb 0.00 in0.0 mm 0.00 in0.0 mm 0.00 in0.0 mm
11:00 AM 29.3°F-1.5°C 20.0°F-6.7°C 68% 1.0 mph NW1.6 kmh NW 7.0 mph11.3 kmh 29.43 in996.6 mb 0.00 in0.0 mm 0.00 in0.0 mm 0.00 in0.0 mm
10:45 AM 28.9°F-1.7°C 20.4°F-6.4°C 70% 3.0 mph NW4.8 kmh NW 9.0 mph14.5 kmh 29.44 in997.0 mb 0.00 in0.0 mm 0.00 in0.0 mm 0.00 in0.0 mm
10:30 AM 28.0°F-2.2°C 20.2°F-6.6°C 72% 3.0 mph WNW4.8 kmh WNW 7.0 mph11.3 kmh 29.44 in997.0 mb 0.00 in0.0 mm 0.00 in0.0 mm 0.00 in0.0 mm
10:15 AM 27.3°F-2.6°C 20.1°F-6.6°C 74% 3.0 mph WNW4.8 kmh WNW 6.0 mph9.7 kmh 29.44 in997.0 mb 0.00 in0.0 mm 0.00 in0.0 mm 0.00 in0.0 mm
10:00 AM 26.4°F-3.1°C 19.6°F-6.9°C 75% 2.0 mph NW3.2 kmh NW 5.0 mph8.0 kmh 29.44 in997.0 mb 0.00 in0.0 mm 0.00 in0.0 mm 0.00 in0.0 mm
09:45 AM 25.7°F-3.5°C 19.5°F-6.9°C 77% Calm Calm 2.0 mph3.2 kmh 29.44 in997.0 mb 0.00 in0.0 mm 0.00 in0.0 mm 0.00 in0.0 mm
09:30 AM 25.3°F-3.7°C 19.1°F-7.2°C 77% 1.0 mph NW1.6 kmh NW 4.0 mph6.4 kmh 29.44 in997.0 mb 0.00 in0.0 mm 0.00 in0.0 mm 0.00 in0.0 mm
09:15 AM 25.0°F-3.9°C 19.1°F-7.2°C 78% 1.0 mph NW1.6 kmh NW 3.0 mph4.8 kmh 29.44 in997.0 mb 0.00 in0.0 mm 0.00 in0.0 mm 0.00 in0.0 mm
09:00 AM 24.6°F-4.1°C 18.7°F-7.4°C 78% 1.0 mph NW1.6 kmh NW 5.0 mph8.0 kmh 29.44 in997.0 mb 0.00 in0.0 mm 0.00 in0.0 mm 0.00 in0.0 mm
08:45 AM 24.3°F-4.3°C 18.7°F-7.4°C 79% Calm Calm 5.0 mph8.0 kmh 29.44 in997.0 mb 0.00 in0.0 mm 0.00 in0.0 mm 0.00 in0.0 mm
08:30 AM 24.1°F-4.4°C 18.8°F-7.3°C 80% 1.0 mph NW1.6 kmh NW 6.0 mph9.7 kmh 29.44 in997.0 mb 0.00 in0.0 mm 0.00 in0.0 mm 0.00 in0.0 mm
08:15 AM 23.7°F-4.6°C 18.7°F-7.4°C 81% 1.0 mph NW1.6 kmh NW 6.0 mph9.7 kmh 29.43 in996.6 mb 0.00 in0.0 mm 0.00 in0.0 mm 0.00 in0.0 mm
08:00 AM 23.7°F-4.6°C 18.7°F-7.4°C 81% Calm Calm 4.0 mph6.4 kmh 29.43 in996.6 mb 0.00 in0.0 mm 0.00 in0.0 mm 0.00 in0.0 mm
07:45 AM 23.5°F-4.7°C 18.6°F-7.4°C 81% 1.0 mph NW1.6 kmh NW 4.0 mph6.4 kmh 29.43 in996.6 mb 0.00 in0.0 mm 0.00 in0.0 mm 0.00 in0.0 mm
07:30 AM 23.7°F-4.6°C 18.7°F-7.4°C 81% 1.0 mph NW1.6 kmh NW 5.0 mph8.0 kmh 29.43 in996.6 mb 0.00 in0.0 mm 0.00 in0.0 mm 0.00 in0.0 mm
07:15 AM 23.5°F-4.7°C 18.6°F-7.4°C 81% 2.0 mph NNW3.2 kmh NNW 7.0 mph11.3 kmh 29.43 in996.6 mb 0.00 in0.0 mm 0.00 in0.0 mm 0.00 in0.0 mm
07:00 AM 23.5°F-4.7°C 18.6°F-7.4°C 81% 2.0 mph NNW3.2 kmh NNW 6.0 mph9.7 kmh 29.42 in996.3 mb 0.00 in0.0 mm 0.00 in0.0 mm 0.00 in0.0 mm
06:45 AM 23.4°F-4.8°C 18.4°F-7.6°C 81% 1.0 mph NW1.6 kmh NW 7.0 mph11.3 kmh 29.42 in996.3 mb 0.00 in0.0 mm 0.00 in0.0 mm 0.00 in0.0 mm
06:30 AM 23.2°F-4.9°C 18.2°F-7.7°C 81% 2.0 mph NW3.2 kmh NW 5.0 mph8.0 kmh 29.42 in996.3 mb 0.00 in0.0 mm 0.00 in0.0 mm 0.00 in0.0 mm
06:15 AM 23.2°F-4.9°C 18.2°F-7.7°C 81% 1.0 mph NNW1.6 kmh NNW 4.0 mph6.4 kmh 29.43 in996.6 mb 0.00 in0.0 mm 0.00 in0.0 mm 0.00 in0.0 mm
06:00 AM 23.2°F-4.9°C 18.2°F-7.7°C 81% 1.0 mph NNW1.6 kmh NNW 4.0 mph6.4 kmh 29.42 in996.3 mb 0.00 in0.0 mm 0.00 in0.0 mm 0.00 in0.0 mm
05:45 AM 23.4°F-4.8°C 18.4°F-7.6°C 81% 1.0 mph NNW1.6 kmh NNW 3.0 mph4.8 kmh 29.43 in996.6 mb 0.00 in0.0 mm 0.00 in0.0 mm 0.00 in0.0 mm
05:30 AM 23.5°F-4.7°C 18.3°F-7.6°C 80% 1.0 mph NNW1.6 kmh NNW 4.0 mph6.4 kmh 29.42 in996.3 mb 0.00 in0.0 mm 0.00 in0.0 mm 0.00 in0.0 mm
05:15 AM 23.5°F-4.7°C 18.3°F-7.6°C 80% 1.0 mph NNW1.6 kmh NNW 5.0 mph8.0 kmh 29.42 in996.3 mb 0.00 in0.0 mm 0.00 in0.0 mm 0.00 in0.0 mm
05:00 AM 24.1°F-4.4°C 18.5°F-7.5°C 79% 1.0 mph NNW1.6 kmh NNW 5.0 mph8.0 kmh 29.42 in996.3 mb 0.00 in0.0 mm 0.00 in0.0 mm 0.00 in0.0 mm
04:45 AM 24.3°F-4.3°C 18.4°F-7.6°C 78% 1.0 mph NW1.6 kmh NW 4.0 mph6.4 kmh 29.42 in996.3 mb 0.00 in0.0 mm 0.00 in0.0 mm 0.00 in0.0 mm
04:30 AM 24.6°F-4.1°C 18.7°F-7.4°C 78% 1.0 mph NW1.6 kmh NW 5.0 mph8.0 kmh 29.42 in996.3 mb 0.00 in0.0 mm 0.00 in0.0 mm 0.00 in0.0 mm
04:15 AM 25.0°F-3.9°C 19.1°F-7.2°C 78% 1.0 mph NW1.6 kmh NW 6.0 mph9.7 kmh 29.42 in996.3 mb 0.00 in0.0 mm 0.00 in0.0 mm 0.00 in0.0 mm
04:00 AM 24.6°F-4.1°C 19.0°F-7.2°C 79% Calm Calm 4.0 mph6.4 kmh 29.42 in996.3 mb 0.00 in0.0 mm 0.00 in0.0 mm 0.00 in0.0 mm
03:45 AM 24.3°F-4.3°C 18.7°F-7.4°C 79% 1.0 mph NW1.6 kmh NW 4.0 mph6.4 kmh 29.42 in996.3 mb 0.00 in0.0 mm 0.00 in0.0 mm 0.00 in0.0 mm
03:30 AM 24.1°F-4.4°C 18.5°F-7.5°C 79% 1.0 mph NW1.6 kmh NW 6.0 mph9.7 kmh 29.42 in996.3 mb 0.00 in0.0 mm 0.00 in0.0 mm 0.00 in0.0 mm
03:15 AM 24.1°F-4.4°C 18.2°F-7.7°C 78% 1.0 mph NW1.6 kmh NW 6.0 mph9.7 kmh 29.42 in996.3 mb 0.00 in0.0 mm 0.00 in0.0 mm 0.00 in0.0 mm
03:00 AM 24.3°F-4.3°C 18.4°F-7.6°C 78% 1.0 mph NW1.6 kmh NW 6.0 mph9.7 kmh 29.42 in996.3 mb 0.00 in0.0 mm 0.00 in0.0 mm 0.00 in0.0 mm
02:45 AM 24.6°F-4.1°C 18.7°F-7.4°C 78% 1.0 mph NW1.6 kmh NW 4.0 mph6.4 kmh 29.42 in996.3 mb 0.00 in0.0 mm 0.00 in0.0 mm 0.00 in0.0 mm
02:30 AM 24.6°F-4.1°C 18.4°F-7.6°C 77% 1.0 mph NNW1.6 kmh NNW 4.0 mph6.4 kmh 29.42 in996.3 mb 0.00 in0.0 mm 0.00 in0.0 mm 0.00 in0.0 mm
02:15 AM 25.0°F-3.9°C 18.8°F-7.3°C 77% 1.0 mph NNW1.6 kmh NNW 4.0 mph6.4 kmh 29.42 in996.3 mb 0.00 in0.0 mm 0.00 in0.0 mm 0.00 in0.0 mm
02:00 AM 24.6°F-4.1°C 18.1°F-7.7°C 76% 2.0 mph NNW3.2 kmh NNW 7.0 mph11.3 kmh 29.43 in996.6 mb 0.00 in0.0 mm 0.00 in0.0 mm 0.00 in0.0 mm
01:45 AM 24.6°F-4.1°C 18.1°F-7.7°C 76% 1.0 mph NNW1.6 kmh NNW 6.0 mph9.7 kmh 29.43 in996.6 mb 0.00 in0.0 mm 0.00 in0.0 mm 0.00 in0.0 mm
01:30 AM 24.6°F-4.1°C 18.1°F-7.7°C 76% Calm Calm 4.0 mph6.4 kmh 29.43 in996.6 mb 0.00 in0.0 mm 0.00 in0.0 mm 0.00 in0.0 mm
01:15 AM 24.6°F-4.1°C 17.8°F-7.9°C 75% 1.0 mph NNW1.6 kmh NNW 4.0 mph6.4 kmh 29.42 in996.3 mb 0.00 in0.0 mm 0.00 in0.0 mm 0.00 in0.0 mm
01:00 AM 24.6°F-4.1°C 17.8°F-7.9°C 75% 1.0 mph NNW1.6 kmh NNW 4.0 mph6.4 kmh 29.42 in996.3 mb 0.00 in0.0 mm 0.00 in0.0 mm 0.00 in0.0 mm
12:45 AM 25.0°F-3.9°C 17.9°F-7.8°C 74% Calm Calm 4.0 mph6.4 kmh 29.43 in996.6 mb 0.00 in0.0 mm 0.00 in0.0 mm 0.00 in0.0 mm
12:30 AM 25.2°F-3.8°C 18.0°F-7.8°C 74% 1.0 mph NNW1.6 kmh NNW 7.0 mph11.3 kmh 29.42 in996.3 mb 0.00 in0.0 mm 0.00 in0.0 mm 0.00 in0.0 mm
12:15 AM 25.0°F-3.9°C 17.9°F-7.8°C 74% 2.0 mph NW3.2 kmh NW 6.0 mph9.7 kmh 29.42 in996.3 mb 0.00 in0.0 mm 0.00 in0.0 mm 0.00 in0.0 mm
12:00 AM 25.0°F-3.9°C 17.9°F-7.8°C 74% 1.0 mph NW1.6 kmh NW 4.0 mph6.4 kmh 29.43 in996.6 mb 0.00 in0.0 mm 0.00 in0.0 mm 0.00 in0.0 mm